sensor_id;sensor_type;location;lat;lon;timestamp;P1;durP1;ratioP1;P2;durP2;ratioP2
84816;SDS011;75051;53.104;18.058;2024-01-30T00:01:56;31.20;;;17.50;;
84816;SDS011;75051;53.104;18.058;2024-01-30T00:04:24;28.50;;;15.60;;
84816;SDS011;75051;53.104;18.058;2024-01-30T00:06:52;30.40;;;16.20;;
84816;SDS011;75051;53.104;18.058;2024-01-30T00:09:19;30.20;;;17.50;;
84816;SDS011;75051;53.104;18.058;2024-01-30T00:11:46;34.80;;;15.20;;
84816;SDS011;75051;53.104;18.058;2024-01-30T00:14:13;31.70;;;15.90;;
84816;SDS011;75051;53.104;18.058;2024-01-30T00:16:40;29.50;;;13.70;;
84816;SDS011;75051;53.104;18.058;2024-01-30T00:19:09;31.00;;;15.30;;
84816;SDS011;75051;53.104;18.058;2024-01-30T00:21:36;28.70;;;15.00;;
84816;SDS011;75051;53.104;18.058;2024-01-30T00:24:03;33.90;;;16.50;;
84816;SDS011;75051;53.104;18.058;2024-01-30T00:26:30;30.30;;;15.10;;
84816;SDS011;75051;53.104;18.058;2024-01-30T00:28:57;30.40;;;15.90;;
84816;SDS011;75051;53.104;18.058;2024-01-30T00:31:24;27.50;;;15.60;;
84816;SDS011;75051;53.104;18.058;2024-01-30T00:33:55;27.00;;;15.50;;
84816;SDS011;75051;53.104;18.058;2024-01-30T00:36:22;25.50;;;15.00;;
84816;SDS011;75051;53.104;18.058;2024-01-30T00:38:48;23.20;;;16.40;;
84816;SDS011;75051;53.104;18.058;2024-01-30T00:41:19;28.00;;;16.50;;
84816;SDS011;75051;53.104;18.058;2024-01-30T00:43:47;25.40;;;14.90;;
84816;SDS011;75051;53.104;18.058;2024-01-30T00:46:14;26.50;;;17.10;;
84816;SDS011;75051;53.104;18.058;2024-01-30T00:48:41;29.10;;;15.40;;
84816;SDS011;75051;53.104;18.058;2024-01-30T00:51:10;26.20;;;15.00;;
84816;SDS011;75051;53.104;18.058;2024-01-30T00:53:36;29.80;;;14.20;;
84816;SDS011;75051;53.104;18.058;2024-01-30T00:56:04;31.30;;;15.90;;
84816;SDS011;75051;53.104;18.058;2024-01-30T00:58:32;27.60;;;15.60;;
84816;SDS011;75051;53.104;18.058;2024-01-30T01:01:00;24.60;;;14.90;;
84816;SDS011;75051;53.104;18.058;2024-01-30T01:03:27;27.10;;;14.60;;
84816;SDS011;75051;53.104;18.058;2024-01-30T01:05:53;28.50;;;15.40;;
84816;SDS011;75051;53.104;18.058;2024-01-30T01:08:21;25.20;;;13.40;;
84816;SDS011;75051;53.104;18.058;2024-01-30T01:10:48;28.10;;;15.00;;
84816;SDS011;75051;53.104;18.058;2024-01-30T01:13:15;22.90;;;12.80;;
84816;SDS011;75051;53.104;18.058;2024-01-30T01:15:42;28.50;;;13.70;;
84816;SDS011;75051;53.104;18.058;2024-01-30T01:18:11;32.60;;;14.70;;
84816;SDS011;75051;53.104;18.058;2024-01-30T01:20:37;29.60;;;15.40;;
84816;SDS011;75051;53.104;18.058;2024-01-30T01:23:05;28.70;;;15.90;;
84816;SDS011;75051;53.104;18.058;2024-01-30T01:25:31;30.40;;;15.20;;
84816;SDS011;75051;53.104;18.058;2024-01-30T01:27:58;29.40;;;15.10;;
84816;SDS011;75051;53.104;18.058;2024-01-30T01:30:27;26.40;;;13.80;;
84816;SDS011;75051;53.104;18.058;2024-01-30T01:33:02;27.20;;;13.50;;
84816;SDS011;75051;53.104;18.058;2024-01-30T01:35:29;29.60;;;16.30;;
84816;SDS011;75051;53.104;18.058;2024-01-30T01:37:58;24.60;;;14.50;;
84816;SDS011;75051;53.104;18.058;2024-01-30T01:40:29;27.90;;;13.30;;
84816;SDS011;75051;53.104;18.058;2024-01-30T01:42:57;28.10;;;14.40;;
84816;SDS011;75051;53.104;18.058;2024-01-30T01:45:23;29.60;;;16.70;;
84816;SDS011;75051;53.104;18.058;2024-01-30T01:47:50;23.30;;;14.80;;
84816;SDS011;75051;53.104;18.058;2024-01-30T01:50:18;22.40;;;13.60;;
84816;SDS011;75051;53.104;18.058;2024-01-30T01:57:48;22.10;;;14.70;;
84816;SDS011;75051;53.104;18.058;2024-01-30T02:00:15;23.90;;;14.00;;
84816;SDS011;75051;53.104;18.058;2024-01-30T02:02:43;26.00;;;16.30;;
84816;SDS011;75051;53.104;18.058;2024-01-30T02:05:12;23.40;;;15.00;;
84816;SDS011;75051;53.104;18.058;2024-01-30T02:07:39;27.10;;;14.60;;
84816;SDS011;75051;53.104;18.058;2024-01-30T02:10:07;28.60;;;16.10;;
84816;SDS011;75051;53.104;18.058;2024-01-30T02:12:36;32.80;;;14.60;;
84816;SDS011;75051;53.104;18.058;2024-01-30T02:15:05;29.60;;;17.20;;
84816;SDS011;75051;53.104;18.058;2024-01-30T02:17:33;28.80;;;14.50;;
84816;SDS011;75051;53.104;18.058;2024-01-30T02:19:59;26.40;;;14.20;;
84816;SDS011;75051;53.104;18.058;2024-01-30T02:22:26;28.70;;;15.70;;
84816;SDS011;75051;53.104;18.058;2024-01-30T02:24:54;23.60;;;14.40;;
84816;SDS011;75051;53.104;18.058;2024-01-30T02:27:21;26.50;;;13.90;;
84816;SDS011;75051;53.104;18.058;2024-01-30T02:29:48;25.40;;;12.70;;
84816;SDS011;75051;53.104;18.058;2024-01-30T02:32:16;25.10;;;15.50;;
84816;SDS011;75051;53.104;18.058;2024-01-30T02:34:42;23.70;;;12.80;;
84816;SDS011;75051;53.104;18.058;2024-01-30T02:37:09;26.10;;;15.00;;
84816;SDS011;75051;53.104;18.058;2024-01-30T02:39:37;27.10;;;13.90;;
84816;SDS011;75051;53.104;18.058;2024-01-30T02:42:04;26.40;;;14.40;;
84816;SDS011;75051;53.104;18.058;2024-01-30T02:44:31;27.90;;;14.80;;
84816;SDS011;75051;53.104;18.058;2024-01-30T02:46:58;26.70;;;14.80;;
84816;SDS011;75051;53.104;18.058;2024-01-30T02:49:24;23.60;;;13.50;;
84816;SDS011;75051;53.104;18.058;2024-01-30T02:51:51;26.70;;;14.70;;
84816;SDS011;75051;53.104;18.058;2024-01-30T02:54:21;29.60;;;15.90;;
84816;SDS011;75051;53.104;18.058;2024-01-30T02:56:49;25.60;;;15.40;;
84816;SDS011;75051;53.104;18.058;2024-01-30T02:59:15;26.50;;;15.20;;
84816;SDS011;75051;53.104;18.058;2024-01-30T03:01:43;29.80;;;15.30;;
84816;SDS011;75051;53.104;18.058;2024-01-30T03:04:10;29.20;;;15.90;;
84816;SDS011;75051;53.104;18.058;2024-01-30T03:06:38;25.80;;;14.80;;
84816;SDS011;75051;53.104;18.058;2024-01-30T03:09:05;26.40;;;12.90;;
84816;SDS011;75051;53.104;18.058;2024-01-30T03:11:35;23.90;;;13.30;;
84816;SDS011;75051;53.104;18.058;2024-01-30T03:14:03;27.60;;;15.20;;
84816;SDS011;75051;53.104;18.058;2024-01-30T03:16:30;25.00;;;13.60;;
84816;SDS011;75051;53.104;18.058;2024-01-30T03:18:57;24.80;;;14.30;;
84816;SDS011;75051;53.104;18.058;2024-01-30T03:21:23;26.80;;;14.60;;
84816;SDS011;75051;53.104;18.058;2024-01-30T03:23:50;23.90;;;13.80;;
84816;SDS011;75051;53.104;18.058;2024-01-30T03:26:17;23.00;;;15.00;;
84816;SDS011;75051;53.104;18.058;2024-01-30T03:28:44;24.90;;;12.20;;
84816;SDS011;75051;53.104;18.058;2024-01-30T03:31:13;25.90;;;14.20;;
84816;SDS011;75051;53.104;18.058;2024-01-30T03:33:40;26.20;;;13.30;;
84816;SDS011;75051;53.104;18.058;2024-01-30T03:36:07;27.40;;;13.70;;
84816;SDS011;75051;53.104;18.058;2024-01-30T03:38:36;25.40;;;14.40;;
84816;SDS011;75051;53.104;18.058;2024-01-30T03:41:03;25.10;;;15.30;;
84816;SDS011;75051;53.104;18.058;2024-01-30T03:43:30;23.80;;;12.30;;
84816;SDS011;75051;53.104;18.058;2024-01-30T03:45:57;24.80;;;15.10;;
84816;SDS011;75051;53.104;18.058;2024-01-30T03:48:24;25.00;;;15.00;;
84816;SDS011;75051;53.104;18.058;2024-01-30T03:50:52;27.00;;;14.50;;
84816;SDS011;75051;53.104;18.058;2024-01-30T03:53:19;22.50;;;13.50;;
84816;SDS011;75051;53.104;18.058;2024-01-30T03:55:46;26.30;;;14.00;;
84816;SDS011;75051;53.104;18.058;2024-01-30T03:58:14;26.50;;;13.40;;
84816;SDS011;75051;53.104;18.058;2024-01-30T04:00:41;23.60;;;14.30;;
84816;SDS011;75051;53.104;18.058;2024-01-30T04:03:07;23.40;;;12.90;;
84816;SDS011;75051;53.104;18.058;2024-01-30T04:05:36;27.90;;;13.80;;
84816;SDS011;75051;53.104;18.058;2024-01-30T04:08:03;23.60;;;14.90;;
84816;SDS011;75051;53.104;18.058;2024-01-30T04:10:31;20.20;;;12.60;;
84816;SDS011;75051;53.104;18.058;2024-01-30T04:12:57;29.10;;;14.40;;
84816;SDS011;75051;53.104;18.058;2024-01-30T04:15:25;27.30;;;15.80;;
84816;SDS011;75051;53.104;18.058;2024-01-30T04:17:52;24.70;;;14.70;;
84816;SDS011;75051;53.104;18.058;2024-01-30T04:20:19;25.50;;;15.20;;
84816;SDS011;75051;53.104;18.058;2024-01-30T04:22:45;27.40;;;14.10;;
84816;SDS011;75051;53.104;18.058;2024-01-30T04:25:13;24.70;;;14.60;;
84816;SDS011;75051;53.104;18.058;2024-01-30T04:27:40;24.00;;;14.00;;
84816;SDS011;75051;53.104;18.058;2024-01-30T04:30:07;25.90;;;14.50;;
84816;SDS011;75051;53.104;18.058;2024-01-30T04:32:34;23.30;;;13.40;;
84816;SDS011;75051;53.104;18.058;2024-01-30T04:35:03;22.90;;;13.30;;
84816;SDS011;75051;53.104;18.058;2024-01-30T04:37:30;24.80;;;12.40;;
84816;SDS011;75051;53.104;18.058;2024-01-30T04:39:57;29.10;;;13.20;;
84816;SDS011;75051;53.104;18.058;2024-01-30T04:42:26;25.70;;;12.60;;
84816;SDS011;75051;53.104;18.058;2024-01-30T04:44:53;22.40;;;13.70;;
84816;SDS011;75051;53.104;18.058;2024-01-30T04:47:19;23.70;;;13.90;;
84816;SDS011;75051;53.104;18.058;2024-01-30T04:49:46;26.50;;;13.70;;
84816;SDS011;75051;53.104;18.058;2024-01-30T04:52:12;26.50;;;13.10;;
84816;SDS011;75051;53.104;18.058;2024-01-30T04:54:39;23.80;;;13.20;;
84816;SDS011;75051;53.104;18.058;2024-01-30T04:57:08;26.30;;;15.30;;
84816;SDS011;75051;53.104;18.058;2024-01-30T04:59:39;28.10;;;12.50;;
84816;SDS011;75051;53.104;18.058;2024-01-30T05:02:05;23.70;;;14.50;;
84816;SDS011;75051;53.104;18.058;2024-01-30T05:04:33;24.10;;;14.00;;
84816;SDS011;75051;53.104;18.058;2024-01-30T05:07:01;26.40;;;14.40;;
84816;SDS011;75051;53.104;18.058;2024-01-30T05:09:28;23.00;;;14.40;;
84816;SDS011;75051;53.104;18.058;2024-01-30T05:11:55;25.80;;;12.30;;
84816;SDS011;75051;53.104;18.058;2024-01-30T05:14:22;30.30;;;14.70;;
84816;SDS011;75051;53.104;18.058;2024-01-30T05:16:49;22.40;;;13.70;;
84816;SDS011;75051;53.104;18.058;2024-01-30T05:19:16;22.40;;;14.40;;
84816;SDS011;75051;53.104;18.058;2024-01-30T05:21:43;20.70;;;12.10;;
84816;SDS011;75051;53.104;18.058;2024-01-30T05:24:10;24.40;;;14.10;;
84816;SDS011;75051;53.104;18.058;2024-01-30T05:26:37;26.20;;;14.10;;
84816;SDS011;75051;53.104;18.058;2024-01-30T05:29:04;25.50;;;15.00;;
84816;SDS011;75051;53.104;18.058;2024-01-30T05:31:33;25.50;;;14.10;;
84816;SDS011;75051;53.104;18.058;2024-01-30T05:34:01;24.70;;;14.00;;
84816;SDS011;75051;53.104;18.058;2024-01-30T05:36:32;23.50;;;11.80;;
84816;SDS011;75051;53.104;18.058;2024-01-30T05:38:59;23.40;;;13.30;;
84816;SDS011;75051;53.104;18.058;2024-01-30T05:41:27;21.20;;;13.10;;
84816;SDS011;75051;53.104;18.058;2024-01-30T05:43:55;16.00;;;8.30;;
84816;SDS011;75051;53.104;18.058;2024-01-30T05:46:22;19.90;;;10.60;;
84816;SDS011;75051;53.104;18.058;2024-01-30T05:48:49;23.00;;;14.10;;
84816;SDS011;75051;53.104;18.058;2024-01-30T05:51:18;25.40;;;13.40;;
84816;SDS011;75051;53.104;18.058;2024-01-30T05:53:45;21.10;;;12.90;;
84816;SDS011;75051;53.104;18.058;2024-01-30T05:56:11;24.50;;;13.00;;
84816;SDS011;75051;53.104;18.058;2024-01-30T05:58:40;21.40;;;12.40;;
84816;SDS011;75051;53.104;18.058;2024-01-30T06:01:07;22.40;;;13.90;;
84816;SDS011;75051;53.104;18.058;2024-01-30T06:03:35;24.40;;;12.10;;
84816;SDS011;75051;53.104;18.058;2024-01-30T06:06:01;26.20;;;12.70;;
84816;SDS011;75051;53.104;18.058;2024-01-30T06:08:28;23.10;;;14.30;;
84816;SDS011;75051;53.104;18.058;2024-01-30T06:10:59;23.50;;;13.50;;
84816;SDS011;75051;53.104;18.058;2024-01-30T06:13:26;25.60;;;13.90;;
84816;SDS011;75051;53.104;18.058;2024-01-30T06:15:53;20.10;;;12.60;;
84816;SDS011;75051;53.104;18.058;2024-01-30T06:18:20;24.30;;;12.50;;
84816;SDS011;75051;53.104;18.058;2024-01-30T06:20:48;25.30;;;12.30;;
84816;SDS011;75051;53.104;18.058;2024-01-30T06:23:15;23.40;;;12.70;;
84816;SDS011;75051;53.104;18.058;2024-01-30T06:25:42;21.80;;;12.20;;
84816;SDS011;75051;53.104;18.058;2024-01-30T06:28:09;21.80;;;12.80;;
84816;SDS011;75051;53.104;18.058;2024-01-30T06:30:35;28.40;;;15.00;;
84816;SDS011;75051;53.104;18.058;2024-01-30T06:33:02;26.40;;;15.70;;
84816;SDS011;75051;53.104;18.058;2024-01-30T06:35:30;28.50;;;16.60;;
84816;SDS011;75051;53.104;18.058;2024-01-30T06:37:57;30.90;;;15.80;;
84816;SDS011;75051;53.104;18.058;2024-01-30T06:40:24;27.90;;;14.10;;
84816;SDS011;75051;53.104;18.058;2024-01-30T06:42:50;23.30;;;12.40;;
84816;SDS011;75051;53.104;18.058;2024-01-30T06:45:18;26.30;;;14.50;;
84816;SDS011;75051;53.104;18.058;2024-01-30T06:47:45;27.00;;;16.30;;
84816;SDS011;75051;53.104;18.058;2024-01-30T06:50:12;28.20;;;14.40;;
84816;SDS011;75051;53.104;18.058;2024-01-30T06:52:42;21.80;;;13.10;;
84816;SDS011;75051;53.104;18.058;2024-01-30T06:55:09;24.60;;;12.80;;
84816;SDS011;75051;53.104;18.058;2024-01-30T06:57:35;29.50;;;12.70;;
84816;SDS011;75051;53.104;18.058;2024-01-30T07:00:07;29.80;;;15.40;;
84816;SDS011;75051;53.104;18.058;2024-01-30T07:02:34;25.80;;;14.70;;
84816;SDS011;75051;53.104;18.058;2024-01-30T07:05:00;28.60;;;13.70;;
84816;SDS011;75051;53.104;18.058;2024-01-30T07:07:27;24.40;;;14.90;;
84816;SDS011;75051;53.104;18.058;2024-01-30T07:09:55;21.30;;;12.70;;
84816;SDS011;75051;53.104;18.058;2024-01-30T07:12:24;28.50;;;14.80;;
84816;SDS011;75051;53.104;18.058;2024-01-30T07:14:52;23.50;;;12.90;;
84816;SDS011;75051;53.104;18.058;2024-01-30T07:17:22;24.80;;;11.40;;
84816;SDS011;75051;53.104;18.058;2024-01-30T07:19:49;21.10;;;12.60;;
84816;SDS011;75051;53.104;18.058;2024-01-30T07:22:16;23.50;;;12.10;;
84816;SDS011;75051;53.104;18.058;2024-01-30T07:24:43;29.20;;;13.90;;
84816;SDS011;75051;53.104;18.058;2024-01-30T07:27:14;24.40;;;13.40;;
84816;SDS011;75051;53.104;18.058;2024-01-30T07:29:42;24.20;;;13.20;;
84816;SDS011;75051;53.104;18.058;2024-01-30T07:32:09;26.50;;;13.20;;
84816;SDS011;75051;53.104;18.058;2024-01-30T07:34:36;22.50;;;11.50;;
84816;SDS011;75051;53.104;18.058;2024-01-30T07:37:02;22.60;;;12.30;;
84816;SDS011;75051;53.104;18.058;2024-01-30T07:39:29;22.30;;;11.30;;
84816;SDS011;75051;53.104;18.058;2024-01-30T07:41:56;24.10;;;13.80;;
84816;SDS011;75051;53.104;18.058;2024-01-30T07:44:22;20.90;;;12.00;;
84816;SDS011;75051;53.104;18.058;2024-01-30T07:46:50;20.00;;;11.30;;
84816;SDS011;75051;53.104;18.058;2024-01-30T07:49:18;20.90;;;11.60;;
84816;SDS011;75051;53.104;18.058;2024-01-30T07:51:46;19.80;;;13.40;;
84816;SDS011;75051;53.104;18.058;2024-01-30T07:54:14;20.40;;;12.10;;
84816;SDS011;75051;53.104;18.058;2024-01-30T07:56:40;16.10;;;10.80;;
84816;SDS011;75051;53.104;18.058;2024-01-30T07:59:11;23.30;;;11.30;;
84816;SDS011;75051;53.104;18.058;2024-01-30T08:01:38;22.70;;;12.70;;
84816;SDS011;75051;53.104;18.058;2024-01-30T08:04:05;20.80;;;12.40;;
84816;SDS011;75051;53.104;18.058;2024-01-30T08:06:31;22.30;;;11.60;;
84816;SDS011;75051;53.104;18.058;2024-01-30T08:08:58;21.30;;;13.20;;
84816;SDS011;75051;53.104;18.058;2024-01-30T08:11:25;23.30;;;13.30;;
84816;SDS011;75051;53.104;18.058;2024-01-30T08:13:55;20.50;;;12.10;;
84816;SDS011;75051;53.104;18.058;2024-01-30T08:16:21;17.80;;;11.50;;
84816;SDS011;75051;53.104;18.058;2024-01-30T08:18:48;22.40;;;13.00;;
84816;SDS011;75051;53.104;18.058;2024-01-30T08:21:15;22.30;;;12.60;;
84816;SDS011;75051;53.104;18.058;2024-01-30T08:23:42;21.40;;;12.30;;
84816;SDS011;75051;53.104;18.058;2024-01-30T08:26:09;24.10;;;13.40;;
84816;SDS011;75051;53.104;18.058;2024-01-30T08:28:37;25.40;;;13.90;;
84816;SDS011;75051;53.104;18.058;2024-01-30T08:31:04;20.90;;;12.50;;
84816;SDS011;75051;53.104;18.058;2024-01-30T08:33:32;22.80;;;12.10;;
84816;SDS011;75051;53.104;18.058;2024-01-30T08:36:00;22.10;;;12.70;;
84816;SDS011;75051;53.104;18.058;2024-01-30T08:38:28;20.80;;;12.30;;
84816;SDS011;75051;53.104;18.058;2024-01-30T08:40:55;16.40;;;11.80;;
84816;SDS011;75051;53.104;18.058;2024-01-30T08:43:23;24.90;;;12.60;;
84816;SDS011;75051;53.104;18.058;2024-01-30T08:45:50;23.20;;;12.20;;
84816;SDS011;75051;53.104;18.058;2024-01-30T08:48:17;21.50;;;14.20;;
84816;SDS011;75051;53.104;18.058;2024-01-30T08:50:44;25.20;;;14.60;;
84816;SDS011;75051;53.104;18.058;2024-01-30T08:53:11;20.20;;;13.20;;
84816;SDS011;75051;53.104;18.058;2024-01-30T08:55:38;24.30;;;13.80;;
84816;SDS011;75051;53.104;18.058;2024-01-30T08:58:05;21.60;;;12.80;;
84816;SDS011;75051;53.104;18.058;2024-01-30T09:00:32;20.70;;;12.90;;
84816;SDS011;75051;53.104;18.058;2024-01-30T09:02:59;21.70;;;13.70;;
84816;SDS011;75051;53.104;18.058;2024-01-30T09:05:26;17.60;;;12.10;;
84816;SDS011;75051;53.104;18.058;2024-01-30T09:07:53;16.90;;;11.70;;
84816;SDS011;75051;53.104;18.058;2024-01-30T09:10:19;16.80;;;11.50;;
84816;SDS011;75051;53.104;18.058;2024-01-30T09:12:47;22.00;;;13.20;;
84816;SDS011;75051;53.104;18.058;2024-01-30T09:15:16;21.20;;;14.00;;
84816;SDS011;75051;53.104;18.058;2024-01-30T09:17:42;20.30;;;12.30;;
84816;SDS011;75051;53.104;18.058;2024-01-30T09:20:09;20.80;;;13.50;;
84816;SDS011;75051;53.104;18.058;2024-01-30T09:22:36;19.40;;;11.70;;
84816;SDS011;75051;53.104;18.058;2024-01-30T09:25:03;20.60;;;13.10;;
84816;SDS011;75051;53.104;18.058;2024-01-30T09:27:30;19.30;;;13.20;;
84816;SDS011;75051;53.104;18.058;2024-01-30T09:29:57;21.00;;;13.40;;
84816;SDS011;75051;53.104;18.058;2024-01-30T09:32:24;20.90;;;12.10;;
84816;SDS011;75051;53.104;18.058;2024-01-30T09:34:50;20.50;;;11.70;;
84816;SDS011;75051;53.104;18.058;2024-01-30T09:37:17;20.20;;;13.70;;
84816;SDS011;75051;53.104;18.058;2024-01-30T09:39:44;18.60;;;11.80;;
84816;SDS011;75051;53.104;18.058;2024-01-30T09:44:55;20.00;;;12.40;;
84816;SDS011;75051;53.104;18.058;2024-01-30T09:47:22;18.10;;;14.40;;
84816;SDS011;75051;53.104;18.058;2024-01-30T09:49:49;17.20;;;12.50;;
84816;SDS011;75051;53.104;18.058;2024-01-30T09:52:16;18.20;;;12.10;;
84816;SDS011;75051;53.104;18.058;2024-01-30T09:54:44;20.30;;;12.60;;
84816;SDS011;75051;53.104;18.058;2024-01-30T09:57:12;21.80;;;13.40;;
84816;SDS011;75051;53.104;18.058;2024-01-30T09:59:38;18.80;;;12.80;;
84816;SDS011;75051;53.104;18.058;2024-01-30T10:02:05;22.20;;;12.90;;
84816;SDS011;75051;53.104;18.058;2024-01-30T10:04:33;21.60;;;13.70;;
84816;SDS011;75051;53.104;18.058;2024-01-30T10:07:01;19.50;;;11.30;;
84816;SDS011;75051;53.104;18.058;2024-01-30T10:09:31;18.40;;;12.20;;
84816;SDS011;75051;53.104;18.058;2024-01-30T10:12:01;19.50;;;13.10;;
84816;SDS011;75051;53.104;18.058;2024-01-30T10:14:31;18.40;;;13.50;;
84816;SDS011;75051;53.104;18.058;2024-01-30T10:16:57;16.70;;;12.00;;
84816;SDS011;75051;53.104;18.058;2024-01-30T10:19:24;18.60;;;13.70;;
84816;SDS011;75051;53.104;18.058;2024-01-30T10:21:51;18.40;;;12.40;;
84816;SDS011;75051;53.104;18.058;2024-01-30T10:24:18;18.60;;;12.90;;
84816;SDS011;75051;53.104;18.058;2024-01-30T10:26:52;19.30;;;12.00;;
84816;SDS011;75051;53.104;18.058;2024-01-30T10:29:20;22.50;;;13.70;;
84816;SDS011;75051;53.104;18.058;2024-01-30T10:32:09;18.20;;;13.20;;
84816;SDS011;75051;53.104;18.058;2024-01-30T10:34:35;22.70;;;13.90;;
84816;SDS011;75051;53.104;18.058;2024-01-30T10:37:09;22.40;;;14.40;;
84816;SDS011;75051;53.104;18.058;2024-01-30T10:39:43;18.80;;;12.30;;
84816;SDS011;75051;53.104;18.058;2024-01-30T10:42:12;17.00;;;12.90;;
84816;SDS011;75051;53.104;18.058;2024-01-30T10:47:36;19.40;;;14.30;;
84816;SDS011;75051;53.104;18.058;2024-01-30T10:50:04;17.10;;;12.70;;
84816;SDS011;75051;53.104;18.058;2024-01-30T10:52:37;17.60;;;13.50;;
84816;SDS011;75051;53.104;18.058;2024-01-30T10:55:07;19.40;;;13.10;;
84816;SDS011;75051;53.104;18.058;2024-01-30T10:57:36;21.20;;;12.20;;
84816;SDS011;75051;53.104;18.058;2024-01-30T11:00:06;19.30;;;11.60;;
84816;SDS011;75051;53.104;18.058;2024-01-30T11:02:45;20.30;;;12.80;;
84816;SDS011;75051;53.104;18.058;2024-01-30T11:05:14;18.70;;;12.10;;
84816;SDS011;75051;53.104;18.058;2024-01-30T11:07:45;18.90;;;13.10;;
84816;SDS011;75051;53.104;18.058;2024-01-30T11:10:12;19.00;;;13.70;;
84816;SDS011;75051;53.104;18.058;2024-01-30T11:12:42;14.60;;;11.70;;
84816;SDS011;75051;53.104;18.058;2024-01-30T11:15:11;20.00;;;11.20;;
84816;SDS011;75051;53.104;18.058;2024-01-30T11:17:43;17.00;;;11.00;;
84816;SDS011;75051;53.104;18.058;2024-01-30T11:20:30;16.90;;;11.00;;
84816;SDS011;75051;53.104;18.058;2024-01-30T11:23:06;15.70;;;10.50;;
84816;SDS011;75051;53.104;18.058;2024-01-30T11:25:33;18.90;;;12.70;;
84816;SDS011;75051;53.104;18.058;2024-01-30T11:28:00;21.40;;;13.40;;
84816;SDS011;75051;53.104;18.058;2024-01-30T11:30:29;13.10;;;8.50;;
84816;SDS011;75051;53.104;18.058;2024-01-30T11:33:43;14.10;;;10.30;;
84816;SDS011;75051;53.104;18.058;2024-01-30T11:35:57;19.10;;;12.00;;
84816;SDS011;75051;53.104;18.058;2024-01-30T11:38:28;18.20;;;12.60;;
84816;SDS011;75051;53.104;18.058;2024-01-30T11:40:55;16.40;;;13.40;;
84816;SDS011;75051;53.104;18.058;2024-01-30T11:43:23;15.40;;;11.30;;
84816;SDS011;75051;53.104;18.058;2024-01-30T11:45:50;14.60;;;11.00;;
84816;SDS011;75051;53.104;18.058;2024-01-30T11:48:17;11.10;;;8.30;;
84816;SDS011;75051;53.104;18.058;2024-01-30T11:50:44;17.90;;;11.40;;
84816;SDS011;75051;53.104;18.058;2024-01-30T11:53:11;21.00;;;12.10;;
84816;SDS011;75051;53.104;18.058;2024-01-30T11:55:40;15.40;;;11.00;;
84816;SDS011;75051;53.104;18.058;2024-01-30T11:58:08;18.90;;;14.10;;
84816;SDS011;75051;53.104;18.058;2024-01-30T12:00:35;17.20;;;10.30;;
84816;SDS011;75051;53.104;18.058;2024-01-30T12:03:03;13.40;;;9.00;;
84816;SDS011;75051;53.104;18.058;2024-01-30T12:05:36;15.60;;;9.90;;
84816;SDS011;75051;53.104;18.058;2024-01-30T12:08:14;16.90;;;10.70;;
84816;SDS011;75051;53.104;18.058;2024-01-30T12:10:42;16.40;;;11.00;;
84816;SDS011;75051;53.104;18.058;2024-01-30T12:13:09;15.20;;;9.20;;
84816;SDS011;75051;53.104;18.058;2024-01-30T12:15:36;15.50;;;10.80;;
84816;SDS011;75051;53.104;18.058;2024-01-30T12:18:04;13.60;;;9.40;;
84816;SDS011;75051;53.104;18.058;2024-01-30T12:20:32;20.10;;;12.40;;
84816;SDS011;75051;53.104;18.058;2024-01-30T12:22:59;22.70;;;13.50;;
84816;SDS011;75051;53.104;18.058;2024-01-30T12:25:25;17.20;;;11.20;;
84816;SDS011;75051;53.104;18.058;2024-01-30T12:27:52;16.20;;;11.20;;
84816;SDS011;75051;53.104;18.058;2024-01-30T12:30:19;19.30;;;12.00;;
84816;SDS011;75051;53.104;18.058;2024-01-30T12:32:49;16.00;;;10.50;;
84816;SDS011;75051;53.104;18.058;2024-01-30T12:35:17;14.20;;;9.10;;
84816;SDS011;75051;53.104;18.058;2024-01-30T12:37:45;19.50;;;12.40;;
84816;SDS011;75051;53.104;18.058;2024-01-30T12:40:16;15.90;;;11.30;;
84816;SDS011;75051;53.104;18.058;2024-01-30T12:42:43;12.80;;;10.50;;
84816;SDS011;75051;53.104;18.058;2024-01-30T12:45:15;18.60;;;12.20;;
84816;SDS011;75051;53.104;18.058;2024-01-30T12:47:43;14.70;;;10.00;;
84816;SDS011;75051;53.104;18.058;2024-01-30T12:50:10;17.50;;;11.00;;
84816;SDS011;75051;53.104;18.058;2024-01-30T12:52:38;17.80;;;11.80;;
84816;SDS011;75051;53.104;18.058;2024-01-30T12:55:05;20.60;;;12.10;;
84816;SDS011;75051;53.104;18.058;2024-01-30T12:57:32;16.90;;;10.70;;
84816;SDS011;75051;53.104;18.058;2024-01-30T12:59:59;16.10;;;10.30;;
84816;SDS011;75051;53.104;18.058;2024-01-30T13:02:26;18.60;;;11.60;;
84816;SDS011;75051;53.104;18.058;2024-01-30T13:04:56;15.50;;;10.70;;
84816;SDS011;75051;53.104;18.058;2024-01-30T13:07:24;14.50;;;10.30;;
84816;SDS011;75051;53.104;18.058;2024-01-30T13:09:52;18.20;;;11.60;;
84816;SDS011;75051;53.104;18.058;2024-01-30T13:12:21;15.40;;;10.60;;
84816;SDS011;75051;53.104;18.058;2024-01-30T13:14:48;11.90;;;8.00;;
84816;SDS011;75051;53.104;18.058;2024-01-30T13:17:15;16.30;;;10.50;;
84816;SDS011;75051;53.104;18.058;2024-01-30T13:19:41;19.80;;;9.90;;
84816;SDS011;75051;53.104;18.058;2024-01-30T13:22:08;19.80;;;13.10;;
84816;SDS011;75051;53.104;18.058;2024-01-30T13:24:36;21.80;;;11.10;;
84816;SDS011;75051;53.104;18.058;2024-01-30T13:27:03;17.10;;;11.80;;
84816;SDS011;75051;53.104;18.058;2024-01-30T13:29:42;15.90;;;10.10;;
84816;SDS011;75051;53.104;18.058;2024-01-30T13:32:09;20.30;;;10.60;;
84816;SDS011;75051;53.104;18.058;2024-01-30T13:34:38;18.60;;;12.60;;
84816;SDS011;75051;53.104;18.058;2024-01-30T13:37:08;17.30;;;10.60;;
84816;SDS011;75051;53.104;18.058;2024-01-30T13:39:36;24.10;;;12.80;;
84816;SDS011;75051;53.104;18.058;2024-01-30T13:42:03;19.20;;;10.90;;
84816;SDS011;75051;53.104;18.058;2024-01-30T13:44:30;18.30;;;11.10;;
84816;SDS011;75051;53.104;18.058;2024-01-30T13:47:00;20.50;;;11.60;;
84816;SDS011;75051;53.104;18.058;2024-01-30T13:49:28;19.70;;;11.90;;
84816;SDS011;75051;53.104;18.058;2024-01-30T13:51:56;17.40;;;10.20;;
84816;SDS011;75051;53.104;18.058;2024-01-30T13:54:24;19.50;;;11.20;;
84816;SDS011;75051;53.104;18.058;2024-01-30T13:56:51;18.10;;;10.20;;
84816;SDS011;75051;53.104;18.058;2024-01-30T13:59:18;16.60;;;11.30;;
84816;SDS011;75051;53.104;18.058;2024-01-30T14:01:50;19.70;;;12.60;;
84816;SDS011;75051;53.104;18.058;2024-01-30T14:04:18;16.70;;;10.00;;
84816;SDS011;75051;53.104;18.058;2024-01-30T14:06:44;17.50;;;10.80;;
84816;SDS011;75051;53.104;18.058;2024-01-30T14:09:11;17.10;;;12.20;;
84816;SDS011;75051;53.104;18.058;2024-01-30T14:11:38;18.40;;;10.90;;
84816;SDS011;75051;53.104;18.058;2024-01-30T14:14:05;18.20;;;11.00;;
84816;SDS011;75051;53.104;18.058;2024-01-30T14:16:31;16.90;;;10.80;;
84816;SDS011;75051;53.104;18.058;2024-01-30T14:19:00;16.60;;;10.60;;
84816;SDS011;75051;53.104;18.058;2024-01-30T14:21:29;21.20;;;11.90;;
84816;SDS011;75051;53.104;18.058;2024-01-30T14:23:57;17.20;;;10.50;;